sensor_id;sensor_type;location;lat;lon;timestamp;pressure;altitude;pressure_sealevel;temperature;humidity
19884;BME280;10104;50.732;10.174;2023-11-21T00:00:40;97254.75;;;7.57;100.00
19884;BME280;10104;50.732;10.174;2023-11-21T00:03:20;97257.19;;;7.58;100.00
19884;BME280;10104;50.732;10.174;2023-11-21T00:06:04;97257.00;;;7.60;100.00
19884;BME280;10104;50.732;10.174;2023-11-21T00:08:44;97259.19;;;7.56;100.00
19884;BME280;10104;50.732;10.174;2023-11-21T00:11:25;97260.00;;;7.57;100.00
19884;BME280;10104;50.732;10.174;2023-11-21T00:14:05;97262.66;;;7.57;100.00
19884;BME280;10104;50.732;10.174;2023-11-21T00:16:45;97260.38;;;7.54;100.00
19884;BME280;10104;50.732;10.174;2023-11-21T00:19:26;97251.28;;;7.56;100.00
19884;BME280;10104;50.732;10.174;2023-11-21T00:22:06;97257.56;;;7.55;100.00
19884;BME280;10104;50.732;10.174;2023-11-21T00:24:47;97264.47;;;7.56;100.00
19884;BME280;10104;50.732;10.174;2023-11-21T00:27:28;97267.44;;;7.53;100.00
19884;BME280;10104;50.732;10.174;2023-11-21T00:30:08;97271.09;;;7.52;100.00
19884;BME280;10104;50.732;10.174;2023-11-21T00:32:49;97265.84;;;7.52;100.00
19884;BME280;10104;50.732;10.174;2023-11-21T00:35:29;97267.19;;;7.48;100.00
19884;BME280;10104;50.732;10.174;2023-11-21T00:38:09;97277.28;;;7.45;100.00
19884;BME280;10104;50.732;10.174;2023-11-21T00:40:49;97279.28;;;7.43;100.00
19884;BME280;10104;50.732;10.174;2023-11-21T00:43:30;97278.03;;;7.39;100.00
19884;BME280;10104;50.732;10.174;2023-11-21T00:46:10;97282.28;;;7.40;100.00
19884;BME280;10104;50.732;10.174;2023-11-21T00:48:50;97280.19;;;7.35;100.00
19884;BME280;10104;50.732;10.174;2023-11-21T00:51:30;97281.38;;;7.32;100.00
19884;BME280;10104;50.732;10.174;2023-11-21T00:54:11;97273.84;;;7.29;100.00
19884;BME280;10104;50.732;10.174;2023-11-21T00:56:51;97274.56;;;7.23;100.00
19884;BME280;10104;50.732;10.174;2023-11-21T00:59:33;97276.94;;;7.18;100.00
19884;BME280;10104;50.732;10.174;2023-11-21T01:02:13;97283.41;;;7.16;100.00
19884;BME280;10104;50.732;10.174;2023-11-21T01:04:53;97283.47;;;7.08;100.00
19884;BME280;10104;50.732;10.174;2023-11-21T01:07:34;97287.66;;;7.02;100.00
19884;BME280;10104;50.732;10.174;2023-11-21T01:10:14;97279.28;;;6.99;100.00
19884;BME280;10104;50.732;10.174;2023-11-21T01:12:54;97282.03;;;6.90;100.00
19884;BME280;10104;50.732;10.174;2023-11-21T01:15:34;97289.00;;;6.83;100.00
19884;BME280;10104;50.732;10.174;2023-11-21T01:18:14;97292.13;;;6.79;100.00
19884;BME280;10104;50.732;10.174;2023-11-21T01:20:55;97291.84;;;6.74;100.00
19884;BME280;10104;50.732;10.174;2023-11-21T01:23:35;97293.22;;;6.70;100.00
19884;BME280;10104;50.732;10.174;2023-11-21T01:26:15;97296.31;;;6.73;100.00
19884;BME280;10104;50.732;10.174;2023-11-21T01:28:55;97296.31;;;6.73;100.00
19884;BME280;10104;50.732;10.174;2023-11-21T01:31:35;97295.69;;;6.71;100.00
19884;BME280;10104;50.732;10.174;2023-11-21T01:34:15;97298.66;;;6.68;100.00
19884;BME280;10104;50.732;10.174;2023-11-21T01:36:55;97302.59;;;6.72;100.00
19884;BME280;10104;50.732;10.174;2023-11-21T01:39:36;97301.22;;;6.76;100.00
19884;BME280;10104;50.732;10.174;2023-11-21T01:42:19;97302.75;;;6.71;100.00
19884;BME280;10104;50.732;10.174;2023-11-21T01:44:59;97309.34;;;6.67;100.00
19884;BME280;10104;50.732;10.174;2023-11-21T01:47:40;97310.53;;;6.64;100.00
19884;BME280;10104;50.732;10.174;2023-11-21T01:50:21;97312.19;;;6.65;100.00
19884;BME280;10104;50.732;10.174;2023-11-21T01:53:03;97322.03;;;6.63;100.00
19884;BME280;10104;50.732;10.174;2023-11-21T01:55:45;97311.53;;;6.63;100.00
19884;BME280;10104;50.732;10.174;2023-11-21T01:58:26;97309.56;;;6.65;100.00
19884;BME280;10104;50.732;10.174;2023-11-21T02:01:07;97314.59;;;6.67;100.00
19884;BME280;10104;50.732;10.174;2023-11-21T02:03:47;97315.25;;;6.69;100.00
19884;BME280;10104;50.732;10.174;2023-11-21T02:06:27;97325.94;;;6.67;100.00
19884;BME280;10104;50.732;10.174;2023-11-21T02:09:11;97325.38;;;6.57;100.00
19884;BME280;10104;50.732;10.174;2023-11-21T02:11:55;97325.06;;;6.60;100.00
19884;BME280;10104;50.732;10.174;2023-11-21T02:14:38;97331.91;;;6.61;100.00
19884;BME280;10104;50.732;10.174;2023-11-21T02:17:18;97325.50;;;6.64;100.00
19884;BME280;10104;50.732;10.174;2023-11-21T02:19:58;97336.19;;;6.62;100.00
19884;BME280;10104;50.732;10.174;2023-11-21T02:22:40;97333.22;;;6.65;100.00
19884;BME280;10104;50.732;10.174;2023-11-21T02:25:21;97330.75;;;6.64;100.00
19884;BME280;10104;50.732;10.174;2023-11-21T02:28:02;97327.59;;;6.68;100.00
19884;BME280;10104;50.732;10.174;2023-11-21T02:30:43;97334.16;;;6.72;100.00
19884;BME280;10104;50.732;10.174;2023-11-21T02:33:24;97336.78;;;6.72;100.00
19884;BME280;10104;50.732;10.174;2023-11-21T02:36:04;97332.31;;;6.73;100.00
19884;BME280;10104;50.732;10.174;2023-11-21T02:38:45;97332.16;;;6.74;100.00
19884;BME280;10104;50.732;10.174;2023-11-21T02:41:26;97328.25;;;6.70;100.00
19884;BME280;10104;50.732;10.174;2023-11-21T02:44:06;97331.16;;;6.75;100.00
19884;BME280;10104;50.732;10.174;2023-11-21T02:46:46;97325.25;;;6.73;100.00
19884;BME280;10104;50.732;10.174;2023-11-21T02:49:27;97330.34;;;6.75;100.00
19884;BME280;10104;50.732;10.174;2023-11-21T02:52:08;97327.53;;;6.76;100.00
19884;BME280;10104;50.732;10.174;2023-11-21T02:54:49;97327.53;;;6.76;100.00
19884;BME280;10104;50.732;10.174;2023-11-21T02:57:29;97332.78;;;6.76;100.00
19884;BME280;10104;50.732;10.174;2023-11-21T03:00:10;97327.69;;;6.75;100.00
19884;BME280;10104;50.732;10.174;2023-11-21T03:02:55;97335.44;;;6.76;100.00
19884;BME280;10104;50.732;10.174;2023-11-21T03:05:35;97331.84;;;6.69;100.00
19884;BME280;10104;50.732;10.174;2023-11-21T03:08:17;97325.63;;;6.70;100.00
19884;BME280;10104;50.732;10.174;2023-11-21T03:10:57;97331.91;;;6.61;100.00
19884;BME280;10104;50.732;10.174;2023-11-21T03:13:37;97330.47;;;6.59;100.00
19884;BME280;10104;50.732;10.174;2023-11-21T03:16:18;97333.72;;;6.61;100.00
19884;BME280;10104;50.732;10.174;2023-11-21T03:18:59;97336.34;;;6.61;100.00
19884;BME280;10104;50.732;10.174;2023-11-21T03:21:39;97335.38;;;6.62;100.00
19884;BME280;10104;50.732;10.174;2023-11-21T03:24:20;97332.22;;;6.66;100.00
19884;BME280;10104;50.732;10.174;2023-11-21T03:27:00;97332.84;;;6.68;100.00
19884;BME280;10104;50.732;10.174;2023-11-21T03:29:40;97327.75;;;6.67;100.00
19884;BME280;10104;50.732;10.174;2023-11-21T03:32:20;97334.38;;;6.63;100.00
19884;BME280;10104;50.732;10.174;2023-11-21T03:35:00;97333.28;;;6.57;100.00
19884;BME280;10104;50.732;10.174;2023-11-21T03:37:43;97333.09;;;6.59;100.00
19884;BME280;10104;50.732;10.174;2023-11-21T03:40:24;97335.38;;;6.62;100.00
19884;BME280;10104;50.732;10.174;2023-11-21T03:43:04;97342.28;;;6.63;100.00
19884;BME280;10104;50.732;10.174;2023-11-21T03:45:44;97340.63;;;6.62;100.00
19884;BME280;10104;50.732;10.174;2023-11-21T03:48:24;97346.88;;;6.61;100.00
19884;BME280;10104;50.732;10.174;2023-11-21T03:51:05;97351.34;;;6.60;100.00
19884;BME280;10104;50.732;10.174;2023-11-21T03:53:45;97357.88;;;6.64;100.00
19884;BME280;10104;50.732;10.174;2023-11-21T03:56:25;97363.97;;;6.65;100.00
19884;BME280;10104;50.732;10.174;2023-11-21T03:59:05;97364.13;;;6.63;100.00
19884;BME280;10104;50.732;10.174;2023-11-21T04:01:45;97368.84;;;6.68;100.00
19884;BME280;10104;50.732;10.174;2023-11-21T04:04:25;97370.75;;;6.59;100.00
19884;BME280;10104;50.732;10.174;2023-11-21T04:07:06;97374.00;;;6.61;100.00
19884;BME280;10104;50.732;10.174;2023-11-21T04:09:46;97368.75;;;6.61;100.00
19884;BME280;10104;50.732;10.174;2023-11-21T04:12:26;97376.47;;;6.63;100.00
19884;BME280;10104;50.732;10.174;2023-11-21T04:15:07;97386.00;;;6.64;100.00
19884;BME280;10104;50.732;10.174;2023-11-21T04:17:49;97386.16;;;6.62;100.00
19884;BME280;10104;50.732;10.174;2023-11-21T04:20:29;97383.38;;;6.64;100.00
19884;BME280;10104;50.732;10.174;2023-11-21T04:23:09;97383.19;;;6.65;100.00
19884;BME280;10104;50.732;10.174;2023-11-21T04:25:50;97382.50;;;6.71;100.00
19884;BME280;10104;50.732;10.174;2023-11-21T04:28:30;97377.22;;;6.71;100.00
19884;BME280;10104;50.732;10.174;2023-11-21T04:31:11;97384.75;;;6.74;100.00
19884;BME280;10104;50.732;10.174;2023-11-21T04:33:51;97383.66;;;6.69;100.00
19884;BME280;10104;50.732;10.174;2023-11-21T04:36:31;97392.31;;;6.77;100.00
19884;BME280;10104;50.732;10.174;2023-11-21T04:39:11;97399.22;;;6.78;100.00
19884;BME280;10104;50.732;10.174;2023-11-21T04:41:52;97398.19;;;6.79;100.00
19884;BME280;10104;50.732;10.174;2023-11-21T04:44:32;97400.22;;;6.77;100.00
19884;BME280;10104;50.732;10.174;2023-11-21T04:47:12;97401.84;;;6.78;100.00
19884;BME280;10104;50.732;10.174;2023-11-21T04:49:53;97401.16;;;6.84;100.00
19884;BME280;10104;50.732;10.174;2023-11-21T04:52:33;97405.22;;;6.87;100.00
19884;BME280;10104;50.732;10.174;2023-11-21T04:55:13;97409.16;;;6.91;100.00
19884;BME280;10104;50.732;10.174;2023-11-21T04:57:53;97410.13;;;6.90;100.00
19884;BME280;10104;50.732;10.174;2023-11-21T05:00:34;97409.94;;;6.91;100.00
19884;BME280;10104;50.732;10.174;2023-11-21T05:03:14;97412.41;;;6.93;100.00
19884;BME280;10104;50.732;10.174;2023-11-21T05:05:54;97412.22;;;6.95;100.00
19884;BME280;10104;50.732;10.174;2023-11-21T05:08:36;97405.97;;;6.96;100.00
19884;BME280;10104;50.732;10.174;2023-11-21T05:11:27;97412.41;;;6.93;100.00
19884;BME280;10104;50.732;10.174;2023-11-21T05:14:07;97411.41;;;6.94;100.00
19884;BME280;10104;50.732;10.174;2023-11-21T05:16:49;97416.84;;;6.93;100.00
19884;BME280;10104;50.732;10.174;2023-11-21T05:19:31;97419.31;;;6.94;100.00
19884;BME280;10104;50.732;10.174;2023-11-21T05:22:12;97421.13;;;6.94;100.00
19884;BME280;10104;50.732;10.174;2023-11-21T05:24:53;97421.94;;;6.94;100.00
19884;BME280;10104;50.732;10.174;2023-11-21T05:27:34;97424.75;;;6.93;100.00
19884;BME280;10104;50.732;10.174;2023-11-21T05:30:14;97433.63;;;6.91;100.00
19884;BME280;10104;50.732;10.174;2023-11-21T05:32:55;97440.53;;;6.93;100.00
19884;BME280;10104;50.732;10.174;2023-11-21T05:35:35;97440.72;;;6.91;100.00
19884;BME280;10104;50.732;10.174;2023-11-21T05:38:15;97452.94;;;6.84;100.00
19884;BME280;10104;50.732;10.174;2023-11-21T05:40:55;97450.66;;;6.81;100.00
19884;BME280;10104;50.732;10.174;2023-11-21T05:43:36;97460.03;;;6.83;100.00
19884;BME280;10104;50.732;10.174;2023-11-21T05:46:16;97461.00;;;6.82;100.00
19884;BME280;10104;50.732;10.174;2023-11-21T05:48:56;97461.66;;;6.84;100.00
19884;BME280;10104;50.732;10.174;2023-11-21T05:51:37;97460.84;;;6.84;100.00
19884;BME280;10104;50.732;10.174;2023-11-21T05:54:18;97461.66;;;6.84;100.00
19884;BME280;10104;50.732;10.174;2023-11-21T05:56:59;97463.09;;;6.87;100.00
19884;BME280;10104;50.732;10.174;2023-11-21T05:59:39;97464.09;;;6.86;100.00
19884;BME280;10104;50.732;10.174;2023-11-21T06:02:19;97463.94;;;6.87;100.00
19884;BME280;10104;50.732;10.174;2023-11-21T06:05:00;97464.91;;;6.86;100.00
19884;BME280;10104;50.732;10.174;2023-11-21T06:07:40;97471.16;;;6.85;100.00
19884;BME280;10104;50.732;10.174;2023-11-21T06:10:21;97477.25;;;6.86;100.00
19884;BME280;10104;50.732;10.174;2023-11-21T06:13:01;97478.72;;;6.88;100.00
19884;BME280;10104;50.732;10.174;2023-11-21T06:15:44;97484.16;;;6.87;100.00
19884;BME280;10104;50.732;10.174;2023-11-21T06:18:24;97488.47;;;6.80;100.00
19884;BME280;10104;50.732;10.174;2023-11-21T06:21:04;97487.84;;;6.78;100.00
19884;BME280;10104;50.732;10.174;2023-11-21T06:23:45;97490.97;;;6.73;100.00
19884;BME280;10104;50.732;10.174;2023-11-21T06:26:25;97497.25;;;6.72;100.00
19884;BME280;10104;50.732;10.174;2023-11-21T06:29:06;97501.34;;;6.75;100.00
19884;BME280;10104;50.732;10.174;2023-11-21T06:31:47;97497.44;;;6.71;100.00
19884;BME280;10104;50.732;10.174;2023-11-21T06:34:27;97503.50;;;6.71;100.00
19884;BME280;10104;50.732;10.174;2023-11-21T06:37:08;97493.16;;;6.70;100.00
19884;BME280;10104;50.732;10.174;2023-11-21T06:39:51;97492.63;;;6.74;100.00
19884;BME280;10104;50.732;10.174;2023-11-21T06:42:34;97497.88;;;6.74;100.00
19884;BME280;10104;50.732;10.174;2023-11-21T06:45:15;97513.66;;;6.74;100.00
19884;BME280;10104;50.732;10.174;2023-11-21T06:47:55;97503.81;;;6.76;100.00
19884;BME280;10104;50.732;10.174;2023-11-21T06:50:36;97504.63;;;6.77;100.00
19884;BME280;10104;50.732;10.174;2023-11-21T06:53:16;97511.81;;;6.83;100.00
19884;BME280;10104;50.732;10.174;2023-11-21T06:55:56;97516.44;;;6.81;100.00
19884;BME280;10104;50.732;10.174;2023-11-21T06:58:36;97511.81;;;6.83;100.00
19884;BME280;10104;50.732;10.174;2023-11-21T07:01:17;97519.03;;;6.89;100.00
19884;BME280;10104;50.732;10.174;2023-11-21T07:03:57;97523.44;;;6.97;100.00
19884;BME280;10104;50.732;10.174;2023-11-21T07:06:37;97532.31;;;6.96;100.00
19884;BME280;10104;50.732;10.174;2023-11-21T07:09:17;97532.94;;;6.98;100.00
19884;BME280;10104;50.732;10.174;2023-11-21T07:12:02;97540.94;;;7.04;100.00
19884;BME280;10104;50.732;10.174;2023-11-21T07:14:43;97538.31;;;7.04;100.00
19884;BME280;10104;50.732;10.174;2023-11-21T07:17:25;97544.06;;;7.08;100.00
19884;BME280;10104;50.732;10.174;2023-11-21T07:20:05;97543.38;;;7.14;100.00
19884;BME280;10104;50.732;10.174;2023-11-21T07:22:46;97552.00;;;7.22;100.00
19884;BME280;10104;50.732;10.174;2023-11-21T07:25:27;97552.34;;;7.27;100.00
19884;BME280;10104;50.732;10.174;2023-11-21T07:28:07;97557.06;;;7.32;100.00
19884;BME280;10104;50.732;10.174;2023-11-21T07:30:47;97563.03;;;7.26;100.00
19884;BME280;10104;50.732;10.174;2023-11-21T07:33:28;97577.19;;;7.25;100.00
19884;BME280;10104;50.732;10.174;2023-11-21T07:36:08;97572.28;;;7.22;100.00
19884;BME280;10104;50.732;10.174;2023-11-21T07:38:50;97575.53;;;7.24;100.00
19884;BME280;10104;50.732;10.174;2023-11-21T07:41:30;97580.97;;;7.22;100.00
19884;BME280;10104;50.732;10.174;2023-11-21T07:44:11;97581.69;;;7.16;100.00
19884;BME280;10104;50.732;10.174;2023-11-21T07:46:51;97584.44;;;7.23;100.00
19884;BME280;10104;50.732;10.174;2023-11-21T07:49:31;97587.47;;;7.12;100.00
19884;BME280;10104;50.732;10.174;2023-11-21T07:52:13;97589.13;;;7.13;100.00
19884;BME280;10104;50.732;10.174;2023-11-21T07:54:55;97592.00;;;7.26;100.00
19884;BME280;10104;50.732;10.174;2023-11-21T07:57:35;97599.25;;;7.24;100.00
19884;BME280;10104;50.732;10.174;2023-11-21T08:00:16;97605.75;;;7.36;100.00
19884;BME280;10104;50.732;10.174;2023-11-21T08:02:56;97606.97;;;7.48;100.00
19884;BME280;10104;50.732;10.174;2023-11-21T08:05:36;97602.31;;;7.58;100.00
19884;BME280;10104;50.732;10.174;2023-11-21T08:08:17;97613.03;;;7.57;100.00
19884;BME280;10104;50.732;10.174;2023-11-21T08:10:58;97608.03;;;7.62;100.00
19884;BME280;10104;50.732;10.174;2023-11-21T08:13:38;97606.88;;;7.64;100.00
19884;BME280;10104;50.732;10.174;2023-11-21T08:16:18;97614.25;;;7.69;100.00
19884;BME280;10104;50.732;10.174;2023-11-21T08:18:59;97613.13;;;7.63;100.00
19884;BME280;10104;50.732;10.174;2023-11-21T08:21:39;97618.41;;;7.63;100.00
19884;BME280;10104;50.732;10.174;2023-11-21T08:24:21;97620.53;;;7.45;100.00
19884;BME280;10104;50.732;10.174;2023-11-21T08:27:01;97625.00;;;7.37;100.00
19884;BME280;10104;50.732;10.174;2023-11-21T08:29:42;97623.38;;;7.36;100.00
19884;BME280;10104;50.732;10.174;2023-11-21T08:32:22;97628.47;;;7.37;100.00
19884;BME280;10104;50.732;10.174;2023-11-21T08:35:03;97629.94;;;7.40;100.00
19884;BME280;10104;50.732;10.174;2023-11-21T08:37:43;97637.88;;;7.31;100.00
19884;BME280;10104;50.732;10.174;2023-11-21T08:40:23;97639.38;;;7.34;100.00
19884;BME280;10104;50.732;10.174;2023-11-21T08:43:05;97640.00;;;7.36;100.00
19884;BME280;10104;50.732;10.174;2023-11-21T08:45:48;97631.78;;;7.31;100.00
19884;BME280;10104;50.732;10.174;2023-11-21T08:48:28;97633.78;;;7.29;100.00
19884;BME280;10104;50.732;10.174;2023-11-21T08:51:10;97639.38;;;7.34;100.00
19884;BME280;10104;50.732;10.174;2023-11-21T08:53:54;97643.72;;;7.19;100.00
19884;BME280;10104;50.732;10.174;2023-11-21T08:56:34;97654.13;;;7.04;100.00
19884;BME280;10104;50.732;10.174;2023-11-21T08:59:15;97650.59;;;6.89;100.00
19884;BME280;10104;50.732;10.174;2023-11-21T09:01:55;97664.19;;;7.09;100.00
19884;BME280;10104;50.732;10.174;2023-11-21T09:04:36;97660.31;;;7.27;100.00
19884;BME280;10104;50.732;10.174;2023-11-21T09:07:18;97667.56;;;7.48;100.00
19884;BME280;10104;50.732;10.174;2023-11-21T09:09:58;97668.19;;;7.58;100.00
19884;BME280;10104;50.732;10.174;2023-11-21T09:12:39;97668.19;;;7.81;100.00
19884;BME280;10104;50.732;10.174;2023-11-21T09:15:19;97681.63;;;8.09;100.00
19884;BME280;10104;50.732;10.174;2023-11-21T09:18:00;97668.25;;;8.33;100.00
19884;BME280;10104;50.732;10.174;2023-11-21T09:20:42;97677.28;;;8.53;100.00
19884;BME280;10104;50.732;10.174;2023-11-21T09:23:24;97678.13;;;8.69;100.00
19884;BME280;10104;50.732;10.174;2023-11-21T09:26:05;97671.84;;;8.84;100.00
19884;BME280;10104;50.732;10.174;2023-11-21T09:28:45;97672.75;;;8.91;100.00
19884;BME280;10104;50.732;10.174;2023-11-21T09:31:27;97674.22;;;8.94;100.00
19884;BME280;10104;50.732;10.174;2023-11-21T09:34:08;97679.03;;;8.90;100.00
19884;BME280;10104;50.732;10.174;2023-11-21T09:36:48;97691.50;;;8.97;100.00
19884;BME280;10104;50.732;10.174;2023-11-21T09:39:29;97698.34;;;8.91;100.00
19884;BME280;10104;50.732;10.174;2023-11-21T09:42:26;97691.88;;;8.79;100.00
19884;BME280;10104;50.732;10.174;2023-11-21T09:45:39;97694.59;;;8.71;100.00
19884;BME280;10104;50.732;10.174;2023-11-21T09:48:20;97692.06;;;8.63;100.00
19884;BME280;10104;50.732;10.174;2023-11-21T09:51:01;97692.13;;;8.55;100.00
19884;BME280;10104;50.732;10.174;2023-11-21T09:53:44;97697.34;;;8.63;100.00
19884;BME280;10104;50.732;10.174;2023-11-21T09:56:27;97698.91;;;8.86;100.00
19884;BME280;10104;50.732;10.174;2023-11-21T09:59:13;97701.16;;;9.04;100.00
19884;BME280;10104;50.732;10.174;2023-11-21T10:01:56;97692.41;;;9.18;100.00
19884;BME280;10104;50.732;10.174;2023-11-21T10:04:38;97697.41;;;9.28;100.00
19884;BME280;10104;50.732;10.174;2023-11-21T10:07:19;97692.09;;;9.43;100.00
19884;BME280;10104;50.732;10.174;2023-11-21T10:10:00;97700.38;;;9.54;100.00
19884;BME280;10104;50.732;10.174;2023-11-21T10:12:42;97691.94;;;9.65;100.00
19884;BME280;10104;50.732;10.174;2023-11-21T10:15:24;97691.47;;;9.98;100.00
19884;BME280;10104;50.732;10.174;2023-11-21T10:18:07;97695.25;;;10.10;100.00
19884;BME280;10104;50.732;10.174;2023-11-21T10:20:49;97696.81;;;10.04;100.00
19884;BME280;10104;50.732;10.174;2023-11-21T10:23:34;97697.59;;;10.20;100.00
19884;BME280;10104;50.732;10.174;2023-11-21T10:26:14;97691.34;;;10.27;100.00
19884;BME280;10104;50.732;10.174;2023-11-21T10:29:13;97695.34;;;10.17;100.00
19884;BME280;10104;50.732;10.174;2023-11-21T10:31:56;97701.75;;;10.29;100.00
19884;BME280;10104;50.732;10.174;2023-11-21T10:34:39;97702.28;;;10.18;100.00
19884;BME280;10104;50.732;10.174;2023-11-21T10:37:21;97710.16;;;9.96;100.00
19884;BME280;10104;50.732;10.174;2023-11-21T10:40:02;97702.06;;;9.98;100.00
19884;BME280;10104;50.732;10.174;2023-11-21T10:42:42;97700.84;;;10.00;100.00
19884;BME280;10104;50.732;10.174;2023-11-21T10:45:22;97710.84;;;9.84;100.00
19884;BME280;10104;50.732;10.174;2023-11-21T10:48:07;97711.38;;;9.58;100.00
19884;BME280;10104;50.732;10.174;2023-11-21T10:50:57;97714.97;;;9.36;100.00
19884;BME280;10104;50.732;10.174;2023-11-21T10:53:40;97718.97;;;9.46;100.00
19884;BME280;10104;50.732;10.174;2023-11-21T10:56:25;97716.06;;;9.77;100.00
19884;BME280;10104;50.732;10.174;2023-11-21T10:59:09;97721.84;;;9.66;100.00
19884;BME280;10104;50.732;10.174;2023-11-21T11:01:51;97723.22;;;9.62;100.00
19884;BME280;10104;50.732;10.174;2023-11-21T11:04:33;97723.91;;;9.49;100.00
19884;BME280;10104;50.732;10.174;2023-11-21T11:07:20;97723.69;;;9.51;100.00
19884;BME280;10104;50.732;10.174;2023-11-21T11:10:02;97727.06;;;9.45;100.00
19884;BME280;10104;50.732;10.174;2023-11-21T11:12:46;97724.91;;;9.33;100.00
19884;BME280;10104;50.732;10.174;2023-11-21T11:15:27;97728.47;;;9.26;100.00
19884;BME280;10104;50.732;10.174;2023-11-21T11:18:08;97723.56;;;9.23;100.00
19884;BME280;10104;50.732;10.174;2023-11-21T11:20:50;97736.03;;;9.14;100.00
19884;BME280;10104;50.732;10.174;2023-11-21T11:23:58;97728.84;;;9.08;100.00
19884;BME280;10104;50.732;10.174;2023-11-21T11:26:50;97730.03;;;8.91;100.00
19884;BME280;10104;50.732;10.174;2023-11-21T11:29:43;97727.13;;;9.01;100.00
19884;BME280;10104;50.732;10.174;2023-11-21T11:38:45;97745.16;;;8.97;100.00
19884;BME280;10104;50.732;10.174;2023-11-21T11:41:29;97740.16;;;8.87;100.00
19884;BME280;10104;50.732;10.174;2023-11-21T11:47:31;97744.59;;;8.87;100.00
19884;BME280;10104;50.732;10.174;2023-11-21T11:50:18;97745.47;;;8.65;100.00
19884;BME280;10104;50.732;10.174;2023-11-21T11:53:14;97740.38;;;8.63;100.00
19884;BME280;10104;50.732;10.174;2023-11-21T11:59:07;97739.19;;;8.66;100.00
19884;BME280;10104;50.732;10.174;2023-11-21T12:01:50;97739.56;;;8.77;100.00
19884;BME280;10104;50.732;10.174;2023-11-21T12:04:30;97745.56;;;8.57;100.00
19884;BME280;10104;50.732;10.174;2023-11-21T12:07:15;97751.84;;;8.56;100.00
19884;BME280;10104;50.732;10.174;2023-11-21T12:09:55;97755.56;;;8.61;100.00
19884;BME280;10104;50.732;10.174;2023-11-21T12:12:36;97762.31;;;8.64;100.00
19884;BME280;10104;50.732;10.174;2023-11-21T12:15:16;97761.03;;;8.60;100.00
19884;BME280;10104;50.732;10.174;2023-11-21T12:17:57;97764.13;;;8.63;100.00
19884;BME280;10104;50.732;10.174;2023-11-21T12:20:40;97769.09;;;8.81;100.00
19884;BME280;10104;50.732;10.174;2023-11-21T12:23:23;97757.94;;;8.71;100.00
19884;BME280;10104;50.732;10.174;2023-11-21T12:26:03;97764.88;;;8.72;100.00
19884;BME280;10104;50.732;10.174;2023-11-21T12:28:43;97761.78;;;8.68;100.00
19884;BME280;10104;50.732;10.174;2023-11-21T12:31:24;97765.97;;;8.63;100.00
19884;BME280;10104;50.732;10.174;2023-11-21T12:34:05;97770.75;;;8.59;100.00
19884;BME280;10104;50.732;10.174;2023-11-21T12:36:46;97773.16;;;8.46;100.00
19884;BME280;10104;50.732;10.174;2023-11-21T12:39:26;97775.81;;;8.46;100.00
19884;BME280;10104;50.732;10.174;2023-11-21T12:42:07;97775.91;;;8.52;100.00
19884;BME280;10104;50.732;10.174;2023-11-21T12:44:48;97780.38;;;8.75;100.00
19884;BME280;10104;50.732;10.174;2023-11-21T12:47:47;97772.88;;;8.64;100.00
19884;BME280;10104;50.732;10.174;2023-11-21T12:50:30;97774.69;;;8.63;100.00
19884;BME280;10104;50.732;10.174;2023-11-21T12:53:14;97778.16;;;8.64;100.00
19884;BME280;10104;50.732;10.174;2023-11-21T12:55:57;97780.19;;;8.53;100.00
19884;BME280;10104;50.732;10.174;2023-11-21T12:58:39;97783.38;;;8.49;100.00
19884;BME280;10104;50.732;10.174;2023-11-21T13:01:20;97783.94;;;8.59;100.00
19884;BME280;10104;50.732;10.174;2023-11-21T13:04:03;97784.44;;;8.63;100.00
19884;BME280;10104;50.732;10.174;2023-11-21T13:06:47;97782.34;;;8.73;100.00
19884;BME280;10104;50.732;10.174;2023-11-21T13:09:27;97787.06;;;8.63;100.00
19884;BME280;10104;50.732;10.174;2023-11-21T13:12:08;97779.25;;;8.69;100.00
19884;BME280;10104;50.732;10.174;2023-11-21T13:14:50;97776.91;;;8.74;100.00
19884;BME280;10104;50.732;10.174;2023-11-21T13:17:30;97777.81;;;8.81;100.00
19884;BME280;10104;50.732;10.174;2023-11-21T13:20:12;97778.72;;;8.74;100.00
19884;BME280;10104;50.732;10.174;2023-11-21T13:23:00;97779.09;;;8.85;100.00
19884;BME280;10104;50.732;10.174;2023-11-21T13:25:44;97787.56;;;8.81;100.00
19884;BME280;10104;50.732;10.174;2023-11-21T13:28:36;97780.97;;;8.77;100.00
19884;BME280;10104;50.732;10.174;2023-11-21T13:31:18;97795.00;;;8.77;100.00
19884;BME280;10104;50.732;10.174;2023-11-21T13:34:02;97794.28;;;8.69;100.00
19884;BME280;10104;50.732;10.174;2023-11-21T13:36:45;97795.00;;;8.63;100.00
19884;BME280;10104;50.732;10.174;2023-11-21T13:39:26;97794.16;;;8.62;100.00
19884;BME280;10104;50.732;10.174;2023-11-21T13:42:08;97793.50;;;8.60;100.00
19884;BME280;10104;50.732;10.174;2023-11-21T13:44:56;97803.63;;;8.57;100.00
19884;BME280;10104;50.732;10.174;2023-11-21T13:47:37;97803.34;;;8.66;100.00
19884;BME280;10104;50.732;10.174;2023-11-21T13:50:18;97807.38;;;8.62;100.00
19884;BME280;10104;50.732;10.174;2023-11-21T13:53:04;97802.31;;;8.52;100.00
19884;BME280;10104;50.732;10.174;2023-11-21T13:56:02;97808.41;;;8.53;100.00
19884;BME280;10104;50.732;10.174;2023-11-21T13:58:42;97819.09;;;8.37;100.00
19884;BME280;10104;50.732;10.174;2023-11-21T14:01:30;97822.28;;;8.32;100.00
19884;BME280;10104;50.732;10.174;2023-11-21T14:04:10;97819.13;;;8.29;100.00
19884;BME280;10104;50.732;10.174;2023-11-21T14:06:56;97824.25;;;8.22;100.00
19884;BME280;10104;50.732;10.174;2023-11-21T14:09:39;97829.78;;;8.12;100.00
19884;BME280;10104;50.732;10.174;2023-11-21T14:12:24;97823.63;;;8.20;100.00
19884;BME280;10104;50.732;10.174;2023-11-21T14:15:04;97831.59;;;8.12;100.00
19884;BME280;10104;50.732;10.174;2023-11-21T14:17:47;97831.28;;;8.07;100.00